createdAt,value
2023-07-18T00:01:52.102Z,15.18
2023-07-18T00:04:20.277Z,15.15
2023-07-18T00:06:49.892Z,15.11
2023-07-18T00:09:17.753Z,15.09
2023-07-18T00:11:46.158Z,15.07
2023-07-18T00:14:14.145Z,15.04
2023-07-18T00:16:42.743Z,15.00
2023-07-18T00:19:11.491Z,14.98
2023-07-18T00:21:39.470Z,14.75
2023-07-18T00:24:09.268Z,14.77
2023-07-18T00:26:37.275Z,14.89
2023-07-18T00:29:05.389Z,14.86
2023-07-18T00:31:33.272Z,14.85
2023-07-18T00:34:01.774Z,14.74
2023-07-18T00:36:30.806Z,14.80
2023-07-18T00:39:00.878Z,14.18
2023-07-18T00:41:30.496Z,14.78
2023-07-18T00:43:58.393Z,14.68
2023-07-18T00:46:26.794Z,14.74
2023-07-18T00:48:55.497Z,14.69
2023-07-18T00:51:25.262Z,14.71
2023-07-18T00:53:53.905Z,14.72
2023-07-18T00:56:22.320Z,14.59
2023-07-18T00:58:51.796Z,14.70
2023-07-18T01:01:20.307Z,14.68
2023-07-18T01:03:48.698Z,14.56
2023-07-18T01:06:16.873Z,14.63
2023-07-18T01:08:44.861Z,14.51
2023-07-18T01:11:15.460Z,14.57
2023-07-18T01:13:43.346Z,14.56
2023-07-18T01:16:12.672Z,14.49
2023-07-18T01:18:41.689Z,14.45
2023-07-18T01:21:11.770Z,14.45
2023-07-18T01:23:41.097Z,14.41
2023-07-18T01:26:09.093Z,14.34
2023-07-18T01:28:36.979Z,14.34
2023-07-18T01:31:05.015Z,14.20
2023-07-18T01:33:33.091Z,14.09
2023-07-18T01:36:01.341Z,14.19
2023-07-18T01:38:30.596Z,14.30
2023-07-18T01:41:00.656Z,14.22
2023-07-18T01:43:28.912Z,14.38
2023-07-18T01:46:00.528Z,14.37
2023-07-18T01:48:28.815Z,14.39
2023-07-18T01:50:56.805Z,14.41
2023-07-18T01:53:27.427Z,14.29
2023-07-18T01:55:55.833Z,14.38
2023-07-18T01:58:25.109Z,14.51
2023-07-18T02:00:53.238Z,14.55
2023-07-18T02:03:21.375Z,14.57
2023-07-18T02:05:49.336Z,14.61
2023-07-18T02:08:17.236Z,14.64
2023-07-18T02:10:45.405Z,14.64
2023-07-18T02:13:13.291Z,14.63
2023-07-18T02:15:42.575Z,14.59
2023-07-18T02:18:10.703Z,14.54
2023-07-18T02:20:38.636Z,14.49
2023-07-18T02:23:06.543Z,14.46
2023-07-18T02:25:34.575Z,14.39
2023-07-18T02:28:02.499Z,14.39
2023-07-18T02:30:30.401Z,14.38
2023-07-18T02:32:59.823Z,14.35
2023-07-18T02:35:27.757Z,14.31
2023-07-18T02:37:55.635Z,14.28
2023-07-18T02:40:23.951Z,14.31
2023-07-18T02:42:51.874Z,14.32
2023-07-18T02:45:19.797Z,14.29
2023-07-18T02:47:47.881Z,14.35
2023-07-18T02:50:17.138Z,14.39
2023-07-18T02:52:44.995Z,14.33
2023-07-18T02:55:13.771Z,14.36
2023-07-18T02:57:42.360Z,14.45
2023-07-18T03:00:20.873Z,14.50
2023-07-18T03:02:50.482Z,14.52
2023-07-18T03:05:20.728Z,14.54
2023-07-18T03:07:48.927Z,14.57
2023-07-18T03:10:17.277Z,14.61
2023-07-18T03:12:45.299Z,14.65
2023-07-18T03:15:13.391Z,14.66
2023-07-18T03:17:42.972Z,14.68
2023-07-18T03:20:18.154Z,14.65
2023-07-18T03:22:51.466Z,14.71
2023-07-18T03:25:22.106Z,14.76
2023-07-18T03:27:50.139Z,14.75
2023-07-18T03:30:18.387Z,14.85
2023-07-18T03:32:47.086Z,14.87
2023-07-18T03:35:15.491Z,14.88
2023-07-18T03:37:43.865Z,14.94
2023-07-18T03:40:17.602Z,14.47
2023-07-18T03:42:48.199Z,14.98
2023-07-18T03:45:16.861Z,15.00
2023-07-18T03:47:46.146Z,15.10
2023-07-18T03:50:16.239Z,15.06
2023-07-18T03:52:44.393Z,15.12
2023-07-18T03:55:13.838Z,15.16
2023-07-18T03:57:43.169Z,14.99
2023-07-18T04:00:18.279Z,15.10
2023-07-18T04:02:47.764Z,15.19
2023-07-18T04:05:16.885Z,15.21
2023-07-18T04:07:45.558Z,15.17
2023-07-18T04:10:15.587Z,15.05
2023-07-18T04:12:43.927Z,15.30
2023-07-18T04:15:14.056Z,15.30
2023-07-18T04:17:42.003Z,15.39
2023-07-18T04:20:10.545Z,15.36
2023-07-18T04:22:38.660Z,15.47
2023-07-18T04:25:07.765Z,15.41
2023-07-18T04:27:37.150Z,15.40
2023-07-18T04:30:05.942Z,15.45
2023-07-18T04:32:34.041Z,15.51
2023-07-18T04:35:02.170Z,15.40
2023-07-18T04:37:30.440Z,15.56
2023-07-18T04:39:58.318Z,15.00
2023-07-18T04:42:26.430Z,15.58
2023-07-18T04:44:55.744Z,15.60
2023-07-18T04:47:23.733Z,15.62
2023-07-18T04:49:51.852Z,15.63
2023-07-18T04:52:19.889Z,15.65
2023-07-18T04:54:50.679Z,15.65
2023-07-18T04:57:19.105Z,15.70
2023-07-18T04:59:47.121Z,15.69
2023-07-18T05:02:16.493Z,15.72
2023-07-18T05:04:44.618Z,15.73
2023-07-18T05:07:12.720Z,15.74
2023-07-18T05:09:40.571Z,15.75
2023-07-18T05:12:09.431Z,15.80
2023-07-18T05:14:37.463Z,15.80
2023-07-18T05:17:06.068Z,15.82
2023-07-18T05:19:36.871Z,15.82
2023-07-18T05:22:05.446Z,15.91
2023-07-18T05:24:33.425Z,15.98
2023-07-18T05:27:01.379Z,16.04
2023-07-18T05:29:29.707Z,16.07
2023-07-18T05:31:57.625Z,16.08
2023-07-18T05:34:27.234Z,16.17
2023-07-18T05:36:58.446Z,16.32
2023-07-18T05:39:29.238Z,16.37
2023-07-18T05:41:57.318Z,16.55
2023-07-18T05:44:25.403Z,16.53
2023-07-18T05:46:53.393Z,16.60
2023-07-18T05:49:22.131Z,16.61
2023-07-18T05:51:50.069Z,16.67
2023-07-18T05:54:19.443Z,16.72
2023-07-18T05:56:48.490Z,16.73
2023-07-18T05:59:16.432Z,16.74
2023-07-18T06:01:45.260Z,16.73
2023-07-18T06:04:15.090Z,16.74
2023-07-18T06:06:43.283Z,16.92
2023-07-18T06:09:12.305Z,16.95
2023-07-18T06:11:41.670Z,17.12
2023-07-18T06:14:09.743Z,17.14
2023-07-18T06:16:37.850Z,17.20
2023-07-18T06:19:05.745Z,17.09
2023-07-18T06:21:34.185Z,17.09
2023-07-18T06:24:16.803Z,17.25
2023-07-18T06:26:51.208Z,17.33
2023-07-18T06:29:20.331Z,17.16
2023-07-18T06:31:48.816Z,17.01
2023-07-18T06:34:18.791Z,17.28
2023-07-18T06:36:47.843Z,17.35
2023-07-18T06:39:17.879Z,16.74
2023-07-18T06:41:46.855Z,17.36
2023-07-18T06:44:16.810Z,17.46
2023-07-18T06:46:44.979Z,17.45
2023-07-18T06:49:14.593Z,17.51
2023-07-18T06:51:42.744Z,17.44
2023-07-18T06:54:10.846Z,17.51
2023-07-18T06:56:40.399Z,17.46
2023-07-18T06:59:08.461Z,17.47
2023-07-18T07:01:38.372Z,17.39
2023-07-18T07:04:06.616Z,17.37
2023-07-18T07:06:34.790Z,17.44
2023-07-18T07:09:02.834Z,17.51
2023-07-18T07:11:30.804Z,17.53
2023-07-18T07:13:58.736Z,17.51
2023-07-18T07:16:26.743Z,17.82
2023-07-18T07:18:56.090Z,17.94
2023-07-18T07:21:24.029Z,17.80
2023-07-18T07:23:52.037Z,17.96
2023-07-18T07:26:20.931Z,17.96
2023-07-18T07:28:48.803Z,17.85
2023-07-18T07:31:16.927Z,17.83
2023-07-18T07:33:45.047Z,18.05
2023-07-18T07:36:14.751Z,18.11
2023-07-18T07:38:42.897Z,18.09
2023-07-18T07:41:10.880Z,18.24
2023-07-18T07:43:38.776Z,18.68
2023-07-18T07:46:06.784Z,19.04
2023-07-18T07:48:34.895Z,19.12
2023-07-18T07:51:05.082Z,19.31
2023-07-18T07:53:34.573Z,19.60
2023-07-18T07:56:02.641Z,19.55
2023-07-18T07:58:30.572Z,19.16
2023-07-18T08:00:58.592Z,19.34
2023-07-18T08:03:26.636Z,19.34
2023-07-18T08:05:54.786Z,19.40
2023-07-18T08:08:23.330Z,19.50
2023-07-18T08:10:52.714Z,19.65
2023-07-18T08:13:20.720Z,19.90
2023-07-18T08:15:48.864Z,20.05
2023-07-18T08:18:16.825Z,20.04
2023-07-18T08:20:44.839Z,20.46
2023-07-18T08:23:13.817Z,20.70
2023-07-18T08:25:44.384Z,20.73
2023-07-18T08:28:13.815Z,20.30
2023-07-18T08:30:42.516Z,20.30
2023-07-18T08:33:10.970Z,20.04
2023-07-18T08:35:39.637Z,20.20
2023-07-18T08:38:07.686Z,20.82
2023-07-18T08:40:36.148Z,21.11
2023-07-18T08:43:05.212Z,20.55
2023-07-18T08:45:38.731Z,20.29
2023-07-18T08:48:07.083Z,19.78
2023-07-18T08:50:35.758Z,19.65
2023-07-18T08:53:06.356Z,20.13
2023-07-18T08:55:34.415Z,20.43
2023-07-18T08:58:02.800Z,20.40
2023-07-18T09:00:30.786Z,20.41
2023-07-18T09:03:00.245Z,20.35
2023-07-18T09:05:33.960Z,20.46
2023-07-18T09:08:03.502Z,20.78
2023-07-18T09:10:32.328Z,21.21
2023-07-18T09:13:02.943Z,21.53
2023-07-18T09:15:31.727Z,21.56
2023-07-18T09:18:02.170Z,21.69
2023-07-18T09:20:31.688Z,21.87
2023-07-18T09:23:00.966Z,21.83
2023-07-18T09:25:29.640Z,21.79
2023-07-18T09:28:00.742Z,21.65
2023-07-18T09:30:31.358Z,21.75
2023-07-18T09:33:01.214Z,21.64
2023-07-18T09:35:29.487Z,21.81
2023-07-18T09:37:57.858Z,21.81
2023-07-18T09:40:25.832Z,21.63
2023-07-18T09:42:55.917Z,21.59
2023-07-18T09:45:25.689Z,21.65
2023-07-18T09:47:55.024Z,21.43
2023-07-18T09:50:24.684Z,21.61
2023-07-18T09:52:52.948Z,21.61
2023-07-18T09:55:26.027Z,21.39
2023-07-18T09:57:57.234Z,21.49
2023-07-18T10:00:26.090Z,22.05
2023-07-18T10:02:55.603Z,22.47
2023-07-18T10:05:25.473Z,21.96
2023-07-18T10:07:53.920Z,21.63
2023-07-18T10:10:22.202Z,22.08
2023-07-18T10:13:00.717Z,22.12
2023-07-18T10:15:29.716Z,22.32
2023-07-18T10:18:18.206Z,22.15
2023-07-18T10:21:00.708Z,21.94
2023-07-18T10:23:42.981Z,22.06
2023-07-18T10:26:11.529Z,22.18
2023-07-18T10:28:46.996Z,22.14
2023-07-18T10:31:32.272Z,22.28
2023-07-18T10:34:11.162Z,21.80
2023-07-18T10:36:41.245Z,21.13
2023-07-18T10:39:11.781Z,21.89
2023-07-18T10:41:43.552Z,22.01
2023-07-18T10:44:15.681Z,21.96
2023-07-18T10:46:44.532Z,21.85
2023-07-18T10:49:12.518Z,21.64
2023-07-18T10:51:41.754Z,21.32
2023-07-18T10:54:10.905Z,21.12
2023-07-18T10:56:39.003Z,20.87
2023-07-18T10:59:07.026Z,20.95
2023-07-18T11:01:35.272Z,21.17
2023-07-18T11:04:08.468Z,21.20
2023-07-18T11:06:36.786Z,21.26
2023-07-18T11:09:13.524Z,21.08
2023-07-18T11:11:42.088Z,20.99
2023-07-18T11:14:10.283Z,20.98
2023-07-18T11:16:39.015Z,21.19
2023-07-18T11:19:08.400Z,21.18
2023-07-18T11:21:38.151Z,21.03
2023-07-18T11:24:08.269Z,21.10
2023-07-18T11:26:36.478Z,21.24
2023-07-18T11:29:06.185Z,21.17
2023-07-18T11:31:41.961Z,21.06
2023-07-18T11:34:11.326Z,20.74
2023-07-18T11:36:39.653Z,20.40
2023-07-18T11:39:21.798Z,20.25
2023-07-18T11:41:50.203Z,20.35
2023-07-18T11:44:26.537Z,20.29
2023-07-18T11:46:56.008Z,20.17
2023-07-18T11:49:34.688Z,20.07
2023-07-18T11:52:03.317Z,20.04
2023-07-18T11:54:35.362Z,19.95
2023-07-18T11:57:05.148Z,19.96
2023-07-18T11:59:33.500Z,19.95
2023-07-18T12:02:01.671Z,20.00
2023-07-18T12:04:29.638Z,20.14
2023-07-18T12:06:58.808Z,20.56
2023-07-18T12:09:26.939Z,20.72
2023-07-18T12:11:56.427Z,20.75
2023-07-18T12:14:24.485Z,20.86
2023-07-18T12:16:52.880Z,20.78
2023-07-18T12:19:21.869Z,20.80
2023-07-18T12:21:50.436Z,20.85
2023-07-18T12:24:19.640Z,20.92
2023-07-18T12:26:47.644Z,21.06
2023-07-18T12:29:17.066Z,21.20
2023-07-18T12:31:50.670Z,21.82
2023-07-18T12:34:18.973Z,22.43
2023-07-18T12:36:47.111Z,23.20
2023-07-18T12:39:15.546Z,23.40
2023-07-18T12:41:43.921Z,23.39
2023-07-18T12:44:19.683Z,24.06
2023-07-18T12:46:48.358Z,24.32
2023-07-18T12:49:56.494Z,24.66
2023-07-18T12:52:05.704Z,24.69
2023-07-18T12:54:34.570Z,23.99
2023-07-18T12:57:02.602Z,23.48
2023-07-18T12:59:32.040Z,23.42
2023-07-18T13:02:00.405Z,23.52
2023-07-18T13:04:28.314Z,23.57
2023-07-18T13:06:56.434Z,23.81
2023-07-18T13:09:24.295Z,23.91
2023-07-18T13:11:52.699Z,24.12
2023-07-18T13:14:22.343Z,24.85
2023-07-18T13:16:51.807Z,25.17
2023-07-18T13:19:19.801Z,24.97
2023-07-18T13:21:48.050Z,24.88
2023-07-18T13:24:16.001Z,24.57
2023-07-18T13:26:45.551Z,24.48
2023-07-18T13:29:13.828Z,24.96
2023-07-18T13:31:41.996Z,25.43
2023-07-18T13:34:14.095Z,25.32
2023-07-18T13:36:42.811Z,24.88
2023-07-18T13:39:10.697Z,25.43
2023-07-18T13:41:38.599Z,24.75
2023-07-18T13:44:06.823Z,24.24
2023-07-18T13:46:34.788Z,24.78
2023-07-18T13:49:03.241Z,25.20
2023-07-18T13:51:33.301Z,25.28
2023-07-18T13:54:01.174Z,25.52
2023-07-18T13:56:29.138Z,25.49
2023-07-18T13:58:57.229Z,25.00
2023-07-18T14:01:25.130Z,24.62
2023-07-18T14:03:53.190Z,24.34
2023-07-18T14:06:22.286Z,23.99
2023-07-18T14:08:52.204Z,23.00
2023-07-18T14:11:20.190Z,22.24
2023-07-18T14:13:48.283Z,22.10
2023-07-18T14:16:16.207Z,22.28
2023-07-18T14:18:44.205Z,22.50
2023-07-18T14:21:12.361Z,22.71
2023-07-18T14:23:40.235Z,23.27
2023-07-18T14:26:10.135Z,23.18
2023-07-18T14:28:38.409Z,23.11
2023-07-18T14:31:06.384Z,22.97
2023-07-18T14:33:34.355Z,22.89
2023-07-18T14:36:03.160Z,22.49
2023-07-18T14:38:31.064Z,22.03
2023-07-18T14:40:58.996Z,21.41
2023-07-18T14:43:32.838Z,20.77
2023-07-18T14:46:02.131Z,20.57
2023-07-18T14:48:30.035Z,19.93
2023-07-18T14:50:58.186Z,19.70
2023-07-18T14:53:26.191Z,19.18
2023-07-18T14:55:54.560Z,18.48
2023-07-18T14:58:22.575Z,17.99
2023-07-18T15:00:52.684Z,17.50
2023-07-18T15:03:20.794Z,17.31
2023-07-18T15:05:49.001Z,17.23
2023-07-18T15:08:17.077Z,17.29
2023-07-18T15:10:44.966Z,17.23
2023-07-18T15:13:14.490Z,16.90
2023-07-18T15:15:43.180Z,17.24
2023-07-18T15:18:12.655Z,17.26
2023-07-18T15:20:40.705Z,17.30
2023-07-18T15:23:08.755Z,17.41
2023-07-18T15:25:37.196Z,17.65
2023-07-18T15:28:05.662Z,17.86
2023-07-18T15:30:33.807Z,18.00
2023-07-18T15:33:12.524Z,18.26
2023-07-18T15:35:51.271Z,18.60
2023-07-18T15:38:19.260Z,18.78
2023-07-18T15:40:47.678Z,19.02
2023-07-18T15:43:16.146Z,19.47
2023-07-18T15:45:49.613Z,19.20
2023-07-18T15:48:18.070Z,19.75
2023-07-18T15:50:46.145Z,19.87
2023-07-18T15:53:15.460Z,19.98
2023-07-18T15:55:43.874Z,19.92
2023-07-18T15:58:12.246Z,19.86
2023-07-18T16:00:40.217Z,19.71
2023-07-18T16:03:08.323Z,19.59
2023-07-18T16:05:36.314Z,19.51
2023-07-18T16:08:04.248Z,19.47
2023-07-18T16:10:33.749Z,19.26
2023-07-18T16:13:01.634Z,19.46
2023-07-18T16:15:29.649Z,20.00
2023-07-18T16:18:04.079Z,20.12
2023-07-18T16:20:32.979Z,21.10
2023-07-18T16:23:01.469Z,21.95
2023-07-18T16:25:29.766Z,22.26
2023-07-18T16:27:59.038Z,22.98
2023-07-18T16:30:27.200Z,23.57
2023-07-18T16:32:57.133Z,23.72
2023-07-18T16:35:25.239Z,23.52
2023-07-18T16:37:53.259Z,23.20
2023-07-18T16:40:21.643Z,22.84
2023-07-18T16:42:49.505Z,22.49
2023-07-18T16:47:46.827Z,22.78
2023-07-18T16:50:14.767Z,22.33
2023-07-18T16:52:46.424Z,21.91
2023-07-18T16:55:14.545Z,21.54
2023-07-18T16:57:42.445Z,21.32
2023-07-18T17:00:11.484Z,21.88
2023-07-18T17:02:40.909Z,21.70
2023-07-18T17:05:09.476Z,21.20
2023-07-18T17:07:37.483Z,20.69
2023-07-18T17:10:06.131Z,20.10
2023-07-18T17:12:34.002Z,19.91
2023-07-18T17:15:02.786Z,19.63
2023-07-18T17:17:33.000Z,19.47
2023-07-18T17:20:07.892Z,19.28
2023-07-18T17:22:37.134Z,19.08
2023-07-18T17:25:05.500Z,18.97
2023-07-18T17:27:33.973Z,18.88
2023-07-18T17:30:03.328Z,18.79
2023-07-18T17:32:31.399Z,18.71
2023-07-18T17:34:59.387Z,18.63
2023-07-18T17:37:29.095Z,18.52
2023-07-18T17:39:57.061Z,18.57
2023-07-18T17:42:25.034Z,18.58
2023-07-18T17:44:56.524Z,18.60
2023-07-18T17:47:24.550Z,18.63
2023-07-18T17:49:52.466Z,18.57
2023-07-18T17:52:20.560Z,18.61
2023-07-18T17:54:49.894Z,18.67
2023-07-18T17:57:17.876Z,18.72
2023-07-18T17:59:46.281Z,18.77
2023-07-18T18:02:14.485Z,18.83
2023-07-18T18:04:42.509Z,18.86
2023-07-18T18:07:12.519Z,18.80
2023-07-18T18:09:42.730Z,18.62
2023-07-18T18:12:12.765Z,18.61
2023-07-18T18:14:40.642Z,18.64
2023-07-18T18:17:08.810Z,18.59
2023-07-18T18:19:37.187Z,18.57
2023-07-18T18:22:05.504Z,18.54
2023-07-18T18:24:33.431Z,18.50
2023-07-18T18:27:01.724Z,18.48
2023-07-18T18:29:31.604Z,18.40
2023-07-18T18:31:59.596Z,18.21
2023-07-18T18:34:29.268Z,18.24
2023-07-18T18:36:57.164Z,17.90
2023-07-18T18:39:25.832Z,17.60
2023-07-18T18:41:55.683Z,17.20
2023-07-18T18:44:23.660Z,16.84
2023-07-18T18:46:53.928Z,15.96
2023-07-18T18:49:27.230Z,16.32
2023-07-18T18:51:55.790Z,16.24
2023-07-18T18:54:23.947Z,16.23
2023-07-18T18:56:53.368Z,16.13
2023-07-18T18:59:21.381Z,16.02
2023-07-18T19:01:49.535Z,16.02
2023-07-18T19:04:18.828Z,15.27
2023-07-18T19:06:46.711Z,15.90
2023-07-18T19:09:15.005Z,15.76
2023-07-18T19:11:43.005Z,15.71
2023-07-18T19:14:10.907Z,15.62
2023-07-18T19:16:41.029Z,15.60
2023-07-18T19:19:09.254Z,15.48
2023-07-18T19:21:38.520Z,15.36
2023-07-18T19:24:07.539Z,15.34
2023-07-18T19:26:35.418Z,15.30
2023-07-18T19:29:03.966Z,15.35
2023-07-18T19:31:32.294Z,15.35
2023-07-18T19:34:00.157Z,15.35
2023-07-18T19:36:28.090Z,15.41
2023-07-18T19:38:57.489Z,15.41
2023-07-18T19:41:25.427Z,15.45
2023-07-18T19:43:53.339Z,15.51
2023-07-18T19:46:21.659Z,15.56
2023-07-18T19:48:49.635Z,15.58
2023-07-18T19:51:17.807Z,15.58
2023-07-18T19:53:46.381Z,15.55
2023-07-18T19:56:17.232Z,15.60
2023-07-18T19:58:45.922Z,15.65
2023-07-18T20:01:14.239Z,15.71
2023-07-18T20:03:57.549Z,15.76
2023-07-18T20:06:26.276Z,15.79
2023-07-18T20:08:54.233Z,15.81
2023-07-18T20:11:23.767Z,15.83
2023-07-18T20:13:52.891Z,15.85
2023-07-18T20:16:21.348Z,15.84
2023-07-18T20:18:52.546Z,15.71
2023-07-18T20:21:24.249Z,15.81
2023-07-18T20:23:52.134Z,15.81
2023-07-18T20:26:20.454Z,15.81
2023-07-18T20:28:50.025Z,15.79
2023-07-18T20:31:18.295Z,15.79
2023-07-18T20:33:47.144Z,15.82
2023-07-18T20:36:15.489Z,15.83
2023-07-18T20:38:44.877Z,15.85
2023-07-18T20:41:13.021Z,15.92
2023-07-18T20:43:41.674Z,15.95
2023-07-18T20:46:12.762Z,16.00
2023-07-18T20:48:40.801Z,16.02
2023-07-18T20:51:09.252Z,16.03
2023-07-18T20:53:37.262Z,16.04
2023-07-18T20:56:05.507Z,15.98
2023-07-18T20:58:33.991Z,16.05
2023-07-18T21:01:02.780Z,16.03
2023-07-18T21:03:33.273Z,16.04
2023-07-18T21:06:01.508Z,16.03
2023-07-18T21:08:29.502Z,16.00
2023-07-18T21:10:57.382Z,16.00
2023-07-18T21:13:25.761Z,16.01
2023-07-18T21:15:53.803Z,16.00
2023-07-18T21:18:21.691Z,15.97
2023-07-18T21:20:51.099Z,15.96
2023-07-18T21:23:19.620Z,15.93
2023-07-18T21:25:47.585Z,15.93
2023-07-18T21:28:15.800Z,15.90
2023-07-18T21:30:43.761Z,15.87
2023-07-18T21:33:11.755Z,15.78
2023-07-18T21:35:40.382Z,15.82
2023-07-18T21:38:09.721Z,15.78
2023-07-18T21:40:37.591Z,15.73
2023-07-18T21:43:05.688Z,15.73
2023-07-18T21:45:33.811Z,15.73
2023-07-18T21:48:01.865Z,15.75
2023-07-18T21:50:30.021Z,15.75
2023-07-18T21:52:57.896Z,15.61
2023-07-18T21:55:27.161Z,15.72
2023-07-18T21:57:55.181Z,15.70
2023-07-18T22:00:23.100Z,15.66
2023-07-18T22:02:51.083Z,15.64
2023-07-18T22:05:19.588Z,15.60
2023-07-18T22:07:47.879Z,15.58
2023-07-18T22:10:16.604Z,15.58
2023-07-18T22:12:46.314Z,15.55
2023-07-18T22:15:14.353Z,15.54
2023-07-18T22:17:42.811Z,15.52
2023-07-18T22:20:11.728Z,15.49
2023-07-18T22:22:41.449Z,15.24
2023-07-18T22:25:09.769Z,15.31
2023-07-18T22:27:38.021Z,15.38
2023-07-18T22:30:08.980Z,15.36
2023-07-18T22:32:36.870Z,15.32
2023-07-18T22:35:05.224Z,15.27
2023-07-18T22:37:33.293Z,15.21
2023-07-18T22:40:01.306Z,15.17
2023-07-18T22:42:29.347Z,15.14
2023-07-18T22:44:57.224Z,15.12
2023-07-18T22:47:26.474Z,15.08
2023-07-18T22:49:54.479Z,15.06
2023-07-18T22:52:22.397Z,15.06
2023-07-18T22:54:51.777Z,14.88
2023-07-18T22:57:20.138Z,15.06
2023-07-18T22:59:49.117Z,14.85
2023-07-18T23:02:17.643Z,15.03
2023-07-18T23:04:47.601Z,14.91
2023-07-18T23:07:16.041Z,15.06
2023-07-18T23:09:43.942Z,15.05
2023-07-18T23:12:13.239Z,14.98
2023-07-18T23:14:41.248Z,14.99
2023-07-18T23:17:09.201Z,14.95
2023-07-18T23:19:37.349Z,14.92
2023-07-18T23:22:07.702Z,14.95
2023-07-18T23:24:35.653Z,14.93
2023-07-18T23:27:03.845Z,14.89
2023-07-18T23:29:31.774Z,14.93
2023-07-18T23:31:59.698Z,14.89
2023-07-18T23:34:27.742Z,14.89
2023-07-18T23:36:55.694Z,14.87
2023-07-18T23:39:24.928Z,14.87
2023-07-18T23:41:53.233Z,14.86
2023-07-18T23:44:21.134Z,14.86
2023-07-18T23:46:49.094Z,14.79
2023-07-18T23:49:17.287Z,14.81
2023-07-18T23:51:45.184Z,14.79
2023-07-18T23:54:13.065Z,14.76
2023-07-18T23:56:42.500Z,14.73
2023-07-18T23:59:10.478Z,14.69
